AFL644 UWWW-UWSG
Flight info
| Callsign | AFL644 |
|---|---|
| Flight time | N/A |
| Altitude | 28000 |
| Route | NIDOG T790 RORNA T789 OGRER |
| Aircraft | B738/M-SDE2E3FGHIRWXY/LB1 |
Departure
| Time | N/A |
|---|---|
| Airport | Kurumoch International Airport (UWWW) |
Arrival
| Time | 2026-04-24 19:13 |
|---|---|
| Airport | Gagarin International Airport (UWSG) |
| Time | Latitude | Longitude | Altitude | Speed | Heading |
|---|---|---|---|---|---|
| 2026-04-24 18:54 | 52.47782 | 47.59160 | 18291 ft | 316 kts | 226° |
| 2026-04-24 18:55 | 52.44694 | 47.54058 | 17531 ft | 313 kts | 226° |
| 2026-04-24 18:55 | 52.43183 | 47.51566 | 17137 ft | 312 kts | 226° |
| 2026-04-24 18:55 | 52.41660 | 47.49056 | 16791 ft | 309 kts | 226° |
| 2026-04-24 18:56 | 52.40153 | 47.46574 | 16425 ft | 306 kts | 226° |
| 2026-04-24 18:56 | 52.38658 | 47.44116 | 16076 ft | 304 kts | 226° |
| 2026-04-24 18:56 | 52.37171 | 47.41673 | 15724 ft | 301 kts | 226° |
| 2026-04-24 18:56 | 52.35694 | 47.39251 | 15371 ft | 299 kts | 226° |
| 2026-04-24 18:57 | 52.34227 | 47.36846 | 15027 ft | 297 kts | 226° |
| 2026-04-24 18:57 | 52.32767 | 47.34454 | 14678 ft | 296 kts | 226° |
| 2026-04-24 18:57 | 52.31320 | 47.32086 | 14337 ft | 294 kts | 226° |
| 2026-04-24 18:57 | 52.29878 | 47.29729 | 13993 ft | 292 kts | 226° |
| 2026-04-24 18:58 | 52.28447 | 47.27392 | 13659 ft | 290 kts | 226° |
| 2026-04-24 18:58 | 52.27020 | 47.25066 | 13326 ft | 288 kts | 226° |
| 2026-04-24 18:58 | 52.25605 | 47.22759 | 12955 ft | 287 kts | 226° |
| 2026-04-24 18:58 | 52.24199 | 47.20471 | 12626 ft | 284 kts | 226° |
| 2026-04-24 18:59 | 52.22809 | 47.18209 | 12285 ft | 281 kts | 226° |
| 2026-04-24 18:59 | 52.21430 | 47.15968 | 11971 ft | 279 kts | 226° |
| 2026-04-24 18:59 | 52.20078 | 47.13772 | 11656 ft | 276 kts | 226° |
| 2026-04-24 18:59 | 52.18714 | 47.11560 | 11313 ft | 275 kts | 226° |
| 2026-04-24 19:00 | 52.17362 | 47.09380 | 10999 ft | 272 kts | 225° |
| 2026-04-24 19:00 | 52.15959 | 47.07303 | 10633 ft | 272 kts | 223° |
| 2026-04-24 19:00 | 52.14531 | 47.05276 | 10295 ft | 271 kts | 223° |
| 2026-04-24 19:00 | 52.13114 | 47.03279 | 9961 ft | 266 kts | 223° |
| 2026-04-24 19:01 | 52.11753 | 47.01360 | 9868 ft | 254 kts | 223° |
| 2026-04-24 19:01 | 52.10421 | 46.99475 | 9744 ft | 253 kts | 223° |
| 2026-04-24 19:01 | 52.09096 | 46.97593 | 9634 ft | 254 kts | 223° |
| 2026-04-24 19:01 | 52.07769 | 46.95707 | 9520 ft | 252 kts | 224° |
| 2026-04-24 19:02 | 52.06895 | 46.94464 | 9324 ft | 251 kts | 224° |
| 2026-04-24 19:02 | 52.05169 | 46.92011 | 8965 ft | 247 kts | 224° |
| 2026-04-24 19:02 | 52.03884 | 46.90185 | 8705 ft | 244 kts | 224° |
| 2026-04-24 19:02 | 52.02614 | 46.88379 | 8461 ft | 241 kts | 224° |
| 2026-04-24 19:03 | 52.01356 | 46.86592 | 8181 ft | 239 kts | 224° |
| 2026-04-24 19:03 | 52.00110 | 46.84822 | 7930 ft | 237 kts | 224° |
| 2026-04-24 19:03 | 51.98877 | 46.83072 | 7673 ft | 234 kts | 224° |
| 2026-04-24 19:03 | 51.97654 | 46.81338 | 7417 ft | 233 kts | 224° |
| 2026-04-24 19:04 | 51.96441 | 46.79619 | 7168 ft | 231 kts | 224° |
| 2026-04-24 19:04 | 51.95238 | 46.77914 | 6920 ft | 228 kts | 224° |
| 2026-04-24 19:04 | 51.94046 | 46.76226 | 6670 ft | 227 kts | 224° |
| 2026-04-24 19:04 | 51.92862 | 46.74551 | 6420 ft | 225 kts | 223° |
| 2026-04-24 19:05 | 51.91699 | 46.72907 | 6178 ft | 224 kts | 224° |
| 2026-04-24 19:05 | 51.90528 | 46.71254 | 5934 ft | 222 kts | 224° |
| 2026-04-24 19:05 | 51.89366 | 46.69613 | 5673 ft | 220 kts | 224° |
| 2026-04-24 19:05 | 51.88215 | 46.67990 | 5438 ft | 218 kts | 224° |
| 2026-04-24 19:06 | 51.87074 | 46.66382 | 5210 ft | 216 kts | 224° |
| 2026-04-24 19:06 | 51.85948 | 46.64795 | 4988 ft | 213 kts | 224° |
| 2026-04-24 19:06 | 51.84834 | 46.63227 | 4756 ft | 211 kts | 224° |
| 2026-04-24 19:06 | 51.83724 | 46.61666 | 4528 ft | 212 kts | 224° |
| 2026-04-24 19:07 | 51.82588 | 46.60066 | 4302 ft | 219 kts | 224° |
| 2026-04-24 19:07 | 51.81434 | 46.58443 | 4050 ft | 226 kts | 224° |
| 2026-04-24 19:07 | 51.80633 | 46.57318 | 3873 ft | 225 kts | 224° |
| 2026-04-24 19:07 | 51.79080 | 46.55139 | 3535 ft | 222 kts | 223° |
| 2026-04-24 19:08 | 51.77917 | 46.53510 | 3270 ft | 221 kts | 223° |
| 2026-04-24 19:08 | 51.76763 | 46.51892 | 3038 ft | 217 kts | 223° |
| 2026-04-24 19:08 | 51.75642 | 46.50323 | 2913 ft | 212 kts | 223° |
| 2026-04-24 19:08 | 51.74527 | 46.48763 | 2637 ft | 212 kts | 223° |
| 2026-04-24 19:09 | 51.73418 | 46.47213 | 2413 ft | 208 kts | 223° |
| 2026-04-24 19:09 | 51.72357 | 46.45735 | 2421 ft | 196 kts | 223° |
| 2026-04-24 19:09 | 51.71365 | 46.44329 | 2415 ft | 182 kts | 228° |
| 2026-04-24 19:09 | 51.70800 | 46.42632 | 2409 ft | 168 kts | 252° |
| 2026-04-24 19:10 | 51.70703 | 46.40737 | 2404 ft | 173 kts | 270° |
| 2026-04-24 19:10 | 51.70773 | 46.38846 | 2416 ft | 168 kts | 267° |
| 2026-04-24 19:10 | 51.70807 | 46.36994 | 2215 ft | 164 kts | 267° |
| 2026-04-24 19:10 | 51.70846 | 46.35202 | 2054 ft | 155 kts | 267° |
| 2026-04-24 19:11 | 51.70888 | 46.33480 | 1996 ft | 153 kts | 267° |
| 2026-04-24 19:11 | 51.70937 | 46.31756 | 1700 ft | 148 kts | 266° |
| 2026-04-24 19:11 | 51.70975 | 46.30159 | 1458 ft | 136 kts | 265° |
| 2026-04-24 19:11 | 51.71008 | 46.28669 | 1282 ft | 131 kts | 265° |
| 2026-04-24 19:12 | 51.71043 | 46.27193 | 1120 ft | 131 kts | 266° |
| 2026-04-24 19:12 | 51.71067 | 46.25691 | 957 ft | 136 kts | 265° |
| 2026-04-24 19:12 | 51.71084 | 46.24124 | 720 ft | 143 kts | 266° |
| 2026-04-24 19:12 | 51.71132 | 46.22512 | 533 ft | 146 kts | 268° |
| 2026-04-24 19:13 | 51.71164 | 46.21419 | 412 ft | 148 kts | 266° |
| 2026-04-24 19:13 | 51.71213 | 46.19229 | 160 ft | 147 kts | 270° |
| 2026-04-24 19:13 | 51.71244 | 46.17683 | 109 ft | 122 kts | 272° |
| 2026-04-24 19:13 | 51.71268 | 46.16734 | 104 ft | 40 kts | 272° |
| 2026-04-24 19:14 | 51.71346 | 46.16563 | 107 ft | 20 kts | 358° |
| 2026-04-24 19:14 | 51.71482 | 46.16570 | 110 ft | 18 kts | 3° |
| 2026-04-24 19:14 | 51.71542 | 46.16576 | 110 ft | 0 kts | 3° |
| 2026-04-24 19:15 | 51.71585 | 46.16579 | 110 ft | 14 kts | 3° |
| 2026-04-24 19:15 | 51.71637 | 46.16670 | 110 ft | 13 kts | 89° |
| 2026-04-24 19:15 | 51.71638 | 46.16813 | 110 ft | 13 kts | 91° |
| 2026-04-24 19:15 | 51.71636 | 46.16945 | 110 ft | 10 kts | 91° |
| 2026-04-24 19:16 | 51.71681 | 46.17035 | 110 ft | 4 kts | 9° |
| 2026-04-24 19:16 | 51.71688 | 46.17035 | 110 ft | 1 kts | 2° |
| 2026-04-24 19:16 | 51.71692 | 46.17035 | 110 ft | 0 kts | 2° |